createdAt,value
2023-04-15T00:02:00.947Z,4.70
2023-04-15T00:04:28.817Z,4.90
2023-04-15T00:06:56.638Z,4.50
2023-04-15T00:09:24.203Z,5.43
2023-04-15T00:11:51.682Z,5.70
2023-04-15T00:14:18.847Z,5.45
2023-04-15T00:16:46.574Z,5.18
2023-04-15T00:19:13.765Z,5.80
2023-04-15T00:21:41.507Z,5.05
2023-04-15T00:24:08.724Z,7.15
2023-04-15T00:26:36.354Z,6.28
2023-04-15T00:29:03.610Z,3.33
2023-04-15T00:31:32.051Z,2.83
2023-04-15T00:33:59.900Z,3.78
2023-04-15T00:36:27.859Z,4.13
2023-04-15T00:38:55.075Z,3.50
2023-04-15T00:41:23.264Z,2.88
2023-04-15T00:43:53.170Z,3.00
2023-04-15T00:46:22.190Z,2.40
2023-04-15T00:48:50.712Z,2.70
2023-04-15T00:51:18.188Z,2.25
2023-04-15T00:53:45.390Z,2.53
2023-04-15T00:56:14.233Z,2.78
2023-04-15T00:58:42.235Z,2.40
2023-04-15T01:01:10.380Z,3.40
2023-04-15T01:03:37.982Z,4.15
2023-04-15T01:06:05.880Z,2.92
2023-04-15T01:08:33.284Z,2.85
2023-04-15T01:11:03.846Z,2.58
2023-04-15T01:13:31.591Z,1.98
2023-04-15T01:15:59.308Z,2.97
2023-04-15T01:18:27.454Z,1.60
2023-04-15T01:20:55.119Z,2.20
2023-04-15T01:23:24.699Z,1.58
2023-04-15T01:25:53.673Z,2.03
2023-04-15T01:28:21.532Z,1.98
2023-04-15T01:30:49.377Z,1.50
2023-04-15T01:33:17.047Z,1.60
2023-04-15T01:35:47.394Z,2.00
2023-04-15T01:38:15.626Z,2.08
2023-04-15T01:40:45.122Z,2.42
2023-04-15T01:43:15.613Z,2.20
2023-04-15T01:45:43.413Z,2.42
2023-04-15T01:48:10.726Z,2.33
2023-04-15T01:50:38.838Z,2.30
2023-04-15T01:53:06.148Z,2.40
2023-04-15T01:55:33.682Z,2.63
2023-04-15T01:58:01.487Z,2.40
2023-04-15T02:00:29.287Z,2.33
2023-04-15T02:02:56.634Z,2.40
2023-04-15T02:05:26.649Z,2.30
2023-04-15T02:07:54.021Z,2.58
2023-04-15T02:10:21.950Z,2.97
2023-04-15T02:12:49.275Z,2.85
2023-04-15T02:15:16.898Z,2.65
2023-04-15T02:17:46.162Z,2.70
2023-04-15T02:20:16.035Z,2.70
2023-04-15T02:22:43.320Z,2.47
2023-04-15T02:25:11.251Z,2.22
2023-04-15T02:27:38.643Z,4.43
2023-04-15T02:30:07.621Z,2.47
2023-04-15T02:32:35.702Z,2.83
2023-04-15T02:35:07.978Z,2.30
2023-04-15T02:37:41.787Z,2.80
2023-04-15T02:40:14.138Z,2.90
2023-04-15T02:42:42.096Z,2.55
2023-04-15T02:45:13.197Z,2.90
2023-04-15T02:47:41.879Z,3.83
2023-04-15T02:50:12.882Z,4.28
2023-04-15T02:52:42.856Z,2.78
2023-04-15T02:55:10.898Z,2.40
2023-04-15T02:57:39.402Z,2.60
2023-04-15T03:00:11.782Z,3.00
2023-04-15T03:02:43.236Z,2.85
2023-04-15T03:05:15.195Z,4.13
2023-04-15T03:07:52.270Z,4.18
2023-04-15T03:10:20.980Z,4.15
2023-04-15T03:12:48.644Z,3.10
2023-04-15T03:15:21.663Z,3.72
2023-04-15T03:17:52.107Z,3.50
2023-04-15T03:20:19.959Z,3.85
2023-04-15T03:22:48.613Z,3.75
2023-04-15T03:25:16.590Z,3.63
2023-04-15T03:27:44.553Z,4.30
2023-04-15T03:30:13.548Z,4.50
2023-04-15T03:32:41.564Z,4.70
2023-04-15T03:35:09.900Z,4.43
2023-04-15T03:37:37.110Z,4.40
2023-04-15T03:40:07.158Z,4.60
2023-04-15T03:42:34.354Z,3.88
2023-04-15T03:45:02.166Z,4.90
2023-04-15T03:47:29.424Z,4.70
2023-04-15T03:49:56.926Z,4.70
2023-04-15T03:52:24.200Z,3.95
2023-04-15T03:54:51.775Z,5.55
2023-04-15T03:57:18.936Z,5.40
2023-04-15T03:59:49.721Z,6.82
2023-04-15T04:02:17.515Z,6.05
2023-04-15T04:04:47.486Z,7.18
2023-04-15T04:07:18.919Z,7.82
2023-04-15T04:09:47.656Z,8.55
2023-04-15T04:12:22.172Z,10.43
2023-04-15T04:14:49.834Z,11.07
2023-04-15T04:17:17.080Z,11.10
2023-04-15T04:19:44.637Z,8.75
2023-04-15T04:22:12.318Z,11.20
2023-04-15T04:24:42.558Z,11.77
2023-04-15T04:27:09.799Z,12.48
2023-04-15T04:29:38.599Z,12.23
2023-04-15T04:32:06.148Z,13.38
2023-04-15T04:34:33.712Z,14.75
2023-04-15T04:37:00.934Z,14.35
2023-04-15T04:39:28.385Z,11.68
2023-04-15T04:41:57.458Z,8.20
2023-04-15T04:44:25.410Z,8.10
2023-04-15T04:46:53.702Z,9.50
2023-04-15T04:49:21.354Z,12.80
2023-04-15T04:51:52.608Z,10.55
2023-04-15T04:57:15.346Z,8.27
2023-04-15T04:59:46.809Z,9.40
2023-04-15T05:02:15.793Z,10.77
2023-04-15T05:04:43.379Z,11.57
2023-04-15T05:07:13.043Z,10.68
2023-04-15T05:09:43.591Z,10.85
2023-04-15T05:12:15.165Z,10.25
2023-04-15T05:14:44.647Z,10.77
2023-04-15T05:17:12.649Z,14.15
2023-04-15T05:19:45.749Z,13.35
2023-04-15T05:22:13.299Z,15.25
2023-04-15T05:24:43.514Z,13.32
2023-04-15T05:27:12.060Z,14.30
2023-04-15T05:29:39.670Z,9.05
2023-04-15T05:32:07.250Z,11.15
2023-04-15T05:34:34.728Z,15.88
2023-04-15T05:37:03.063Z,15.77
2023-04-15T05:39:34.899Z,10.57
2023-04-15T05:42:07.127Z,5.70
2023-04-15T05:44:35.608Z,6.65
2023-04-15T05:47:08.858Z,6.05
2023-04-15T05:49:37.008Z,7.25
2023-04-15T05:52:07.949Z,6.18
2023-04-15T05:54:38.935Z,4.05
2023-04-15T05:57:06.416Z,3.05
2023-04-15T05:59:33.945Z,5.57
2023-04-15T06:02:01.435Z,3.63
2023-04-15T06:04:29.150Z,4.22
2023-04-15T06:06:59.247Z,4.55
2023-04-15T06:09:27.287Z,3.38
2023-04-15T06:11:54.977Z,1.42
2023-04-15T06:14:23.564Z,1.50
2023-04-15T06:16:52.581Z,1.80
2023-04-15T06:19:20.639Z,1.30
2023-04-15T06:21:50.086Z,1.73
2023-04-15T06:24:18.851Z,1.60
2023-04-15T06:26:49.069Z,1.20
2023-04-15T06:29:20.352Z,1.60
2023-04-15T06:31:49.646Z,2.15
2023-04-15T06:34:17.257Z,1.48
2023-04-15T06:36:44.517Z,1.98
2023-04-15T06:39:12.575Z,1.42
2023-04-15T06:41:40.467Z,1.70
2023-04-15T06:44:08.095Z,1.63
2023-04-15T06:46:35.816Z,1.38
2023-04-15T06:49:04.069Z,1.60
2023-04-15T06:51:32.166Z,1.65
2023-04-15T06:54:00.702Z,1.40
2023-04-15T06:56:28.351Z,1.30
2023-04-15T06:58:58.123Z,1.85
2023-04-15T07:01:25.582Z,1.27
2023-04-15T07:03:53.798Z,1.27
2023-04-15T07:06:22.558Z,2.45
2023-04-15T07:08:52.283Z,1.55
2023-04-15T07:11:21.311Z,1.40
2023-04-15T07:13:50.236Z,1.73
2023-04-15T07:16:22.803Z,2.65
2023-04-15T07:18:51.274Z,1.20
2023-04-15T07:21:18.641Z,1.77
2023-04-15T07:23:46.837Z,1.35
2023-04-15T07:26:15.949Z,1.02
2023-04-15T07:28:49.835Z,0.90
2023-04-15T07:31:20.196Z,1.02
2023-04-15T07:33:48.228Z,1.33
2023-04-15T07:36:15.639Z,2.60
2023-04-15T07:38:43.380Z,1.35
2023-04-15T07:41:10.857Z,1.40
2023-04-15T07:43:38.715Z,2.10
2023-04-15T07:46:06.138Z,2.92
2023-04-15T07:48:34.938Z,3.05
2023-04-15T07:51:03.801Z,15.13
2023-04-15T07:53:31.555Z,8.25
2023-04-15T07:55:59.247Z,5.03
2023-04-15T10:34:31.524Z,1.75
2023-04-15T10:37:03.863Z,1.92
2023-04-15T10:39:37.603Z,2.45
2023-04-15T10:42:09.703Z,1.95
2023-04-15T10:44:43.250Z,2.03
2023-04-15T10:47:16.117Z,1.80
2023-04-15T10:49:47.009Z,2.00
2023-04-15T10:52:16.819Z,1.77
2023-04-15T10:54:46.998Z,1.80
2023-04-15T10:57:22.049Z,1.80
2023-04-15T10:59:58.937Z,1.38
2023-04-15T11:03:05.806Z,1.77
2023-04-15T11:05:42.187Z,2.10
2023-04-15T11:08:16.808Z,1.48
2023-04-15T11:10:44.134Z,1.30
2023-04-15T11:13:11.658Z,1.55
2023-04-15T11:15:45.131Z,2.30
2023-04-15T11:18:23.791Z,1.55
2023-04-15T11:20:59.629Z,2.20
2023-04-15T11:23:48.889Z,1.60
2023-04-15T11:26:16.471Z,1.77
2023-04-15T11:28:45.765Z,1.65
2023-04-15T11:31:14.693Z,1.92
2023-04-15T11:34:00.335Z,1.48
2023-04-15T11:36:32.343Z,1.33
2023-04-15T11:39:00.687Z,2.40
2023-04-15T11:41:28.869Z,1.40
2023-04-15T11:43:56.585Z,1.77
2023-04-15T11:46:30.993Z,1.25
2023-04-15T11:48:58.652Z,1.45
2023-04-15T11:51:26.248Z,1.35
2023-04-15T11:53:55.658Z,1.40
2023-04-15T11:56:26.811Z,1.77
2023-04-15T11:58:59.646Z,1.30
2023-04-15T12:01:40.037Z,1.40
2023-04-15T12:04:17.807Z,31.27
2023-04-15T12:06:45.956Z,3.28
2023-04-15T12:09:15.548Z,1.63
2023-04-15T12:11:50.322Z,1.38
2023-04-15T12:14:28.671Z,1.17
2023-04-15T12:17:00.572Z,1.63
2023-04-15T12:19:38.929Z,1.73
2023-04-15T12:22:10.594Z,1.17
2023-04-15T12:24:39.578Z,1.23
2023-04-15T12:27:14.655Z,1.45
2023-04-15T12:32:13.615Z,1.67
2023-04-15T12:34:50.026Z,1.23
2023-04-15T12:37:17.907Z,1.33
2023-04-15T12:39:49.174Z,0.93
2023-04-15T12:42:17.703Z,1.50
2023-04-15T12:44:45.630Z,1.38
2023-04-15T12:47:13.593Z,1.95
2023-04-15T12:49:41.517Z,1.70
2023-04-15T12:52:09.181Z,1.80
2023-04-15T12:54:36.778Z,1.45
2023-04-15T12:57:06.877Z,2.70
2023-04-15T12:59:35.816Z,1.30
2023-04-15T13:02:04.096Z,1.55
2023-04-15T13:04:32.209Z,1.58
2023-04-15T13:06:59.743Z,2.15
2023-04-15T13:09:27.312Z,23.73
2023-04-15T13:11:54.781Z,6.82
2023-04-15T13:14:22.563Z,2.47
2023-04-15T13:16:49.863Z,1.58
2023-04-15T13:19:17.409Z,1.25
2023-04-15T13:21:44.704Z,2.60
2023-04-15T13:24:12.266Z,3.88
2023-04-15T13:26:39.543Z,2.47
2023-04-15T13:29:07.462Z,2.50
2023-04-15T13:31:34.824Z,1.58
2023-04-15T13:38:44.745Z,2.20
2023-04-15T13:41:12.311Z,2.58
2023-04-15T13:43:39.532Z,4.07
2023-04-15T13:46:07.198Z,1.95
2023-04-15T13:48:34.464Z,1.95
2023-04-15T13:51:01.954Z,2.35
2023-04-15T13:53:38.530Z,1.77
2023-04-15T13:56:08.565Z,3.47
2023-04-15T13:58:37.005Z,7.13
2023-04-15T14:01:06.230Z,3.92
2023-04-15T14:03:36.232Z,2.60
2023-04-15T14:06:05.490Z,3.85
2023-04-15T14:08:32.928Z,1.42
2023-04-15T14:11:00.763Z,4.60
2023-04-15T14:13:28.336Z,3.33
2023-04-15T14:15:57.407Z,1.58
2023-04-15T14:18:24.685Z,1.55
2023-04-15T14:20:52.237Z,2.70
2023-04-15T14:23:19.807Z,2.17
2023-04-15T14:25:48.308Z,1.73
2023-04-15T14:28:16.020Z,4.18
2023-04-15T14:30:44.027Z,2.00
2023-04-15T14:33:11.450Z,2.45
2023-04-15T14:35:39.279Z,1.50
2023-04-15T14:38:11.025Z,1.45
2023-04-15T14:40:39.047Z,1.17
2023-04-15T14:43:06.217Z,1.40
2023-04-15T14:45:34.110Z,1.77
2023-04-15T14:48:01.705Z,2.42
2023-04-15T14:50:29.486Z,2.50
2023-04-15T14:52:59.508Z,3.15
2023-04-15T14:55:27.118Z,3.50
2023-04-15T14:57:55.240Z,2.75
2023-04-15T15:00:22.967Z,2.72
2023-04-15T15:02:52.321Z,3.00
2023-04-15T15:05:20.211Z,1.90
2023-04-15T15:07:48.016Z,2.53
2023-04-15T15:10:15.714Z,2.50
2023-04-15T15:12:42.944Z,1.92
2023-04-15T15:15:27.988Z,2.50
2023-04-15T15:17:55.791Z,4.40
2023-04-15T15:20:24.644Z,2.38
2023-04-15T15:22:52.162Z,2.35
2023-04-15T15:25:19.960Z,3.60
2023-04-15T15:27:47.416Z,1.70
2023-04-15T15:30:15.013Z,2.03
2023-04-15T15:32:43.036Z,1.73
2023-04-15T15:35:12.962Z,6.18
2023-04-15T15:37:41.158Z,5.05
2023-04-15T15:40:10.622Z,16.85
2023-04-15T15:42:37.980Z,18.58
2023-04-15T15:45:06.212Z,9.13
2023-04-15T15:47:33.720Z,16.35
2023-04-15T15:50:02.717Z,14.50
2023-04-15T15:52:31.608Z,6.53
2023-04-15T15:54:59.253Z,15.32
2023-04-15T15:57:26.484Z,16.30
2023-04-15T16:00:04.800Z,7.45
2023-04-15T16:03:05.235Z,5.00
2023-04-15T16:05:27.228Z,7.65
2023-04-15T16:07:54.444Z,5.60
2023-04-15T16:10:21.992Z,8.52
2023-04-15T16:12:49.709Z,5.47
2023-04-15T16:15:17.290Z,4.60
2023-04-15T16:17:44.539Z,4.72
2023-04-15T16:20:12.056Z,5.05
2023-04-15T16:22:39.649Z,5.75
2023-04-15T16:25:09.978Z,7.50
2023-04-15T16:27:54.065Z,6.20
2023-04-15T16:30:24.767Z,6.30
2023-04-15T16:32:52.053Z,5.82
2023-04-15T16:35:20.178Z,6.03
2023-04-15T16:37:47.418Z,6.25
2023-04-15T16:40:15.471Z,5.60
2023-04-15T16:42:43.833Z,7.25
2023-04-15T16:45:11.797Z,6.63
2023-04-15T16:47:39.136Z,6.55
2023-04-15T16:50:07.410Z,6.72
2023-04-15T16:52:34.850Z,7.50
2023-04-15T16:55:02.577Z,7.13
2023-04-15T16:58:00.377Z,6.93
2023-04-15T17:00:17.644Z,8.98
2023-04-15T17:02:45.166Z,5.88
2023-04-15T17:05:13.041Z,7.05
2023-04-15T17:07:40.331Z,8.10
2023-04-15T17:10:09.571Z,7.47
2023-04-15T17:12:39.074Z,8.57
2023-04-15T17:15:09.059Z,9.23
2023-04-15T17:17:37.902Z,23.75
2023-04-15T17:20:06.253Z,10.82
2023-04-15T17:22:33.811Z,7.70
2023-04-15T17:25:01.525Z,15.43
2023-04-15T17:27:30.214Z,11.13
2023-04-15T17:29:57.967Z,7.68
2023-04-15T17:32:26.567Z,8.20
2023-04-15T17:34:54.160Z,11.52
2023-04-15T17:37:21.438Z,13.55
2023-04-15T17:39:49.050Z,14.63
2023-04-15T17:42:17.096Z,13.23
2023-04-15T17:44:45.825Z,14.75
2023-04-15T17:47:13.212Z,14.18
2023-04-15T17:49:41.262Z,16.38
2023-04-15T17:52:09.904Z,15.57
2023-04-15T17:54:37.732Z,22.10
2023-04-15T17:57:05.511Z,17.00
2023-04-15T17:59:34.321Z,14.80
2023-04-15T18:02:01.824Z,20.38
2023-04-15T18:04:29.995Z,16.02
2023-04-15T18:06:58.294Z,15.65
2023-04-15T18:09:26.030Z,14.52
2023-04-15T18:11:53.523Z,16.27
2023-04-15T18:14:33.698Z,19.60
2023-04-15T18:17:05.421Z,19.38
2023-04-15T18:19:33.132Z,24.52
2023-04-15T18:22:00.722Z,22.75
2023-04-15T18:24:30.697Z,14.82
2023-04-15T18:26:59.269Z,21.27
2023-04-15T18:29:27.476Z,16.85
2023-04-15T18:31:55.215Z,24.90
2023-04-15T18:34:23.342Z,21.20
2023-04-15T18:36:50.877Z,25.70
2023-04-15T18:39:19.523Z,25.35
2023-04-15T18:41:47.228Z,18.60
2023-04-15T18:44:15.594Z,15.63
2023-04-15T18:46:43.253Z,13.23
2023-04-15T18:49:12.658Z,17.13
2023-04-15T18:51:40.094Z,15.45
2023-04-15T18:54:07.922Z,74.00
2023-04-15T18:56:35.545Z,22.00
2023-04-15T18:59:28.187Z,17.58
2023-04-15T19:01:51.746Z,17.55
2023-04-15T19:04:19.811Z,16.80
2023-04-15T19:06:47.834Z,15.48
2023-04-15T19:09:16.428Z,15.25
2023-04-15T19:11:47.793Z,13.02
2023-04-15T19:14:15.692Z,17.38
2023-04-15T19:16:43.431Z,16.88
2023-04-15T19:19:14.734Z,21.75
2023-04-15T19:21:42.212Z,23.27
2023-04-15T19:24:10.376Z,25.48
2023-04-15T19:26:37.924Z,26.27
2023-04-15T19:29:05.883Z,25.77
2023-04-15T19:31:33.355Z,18.45
2023-04-15T19:34:01.003Z,15.60
2023-04-15T19:36:28.729Z,18.27
2023-04-15T19:38:56.685Z,19.30
2023-04-15T19:41:23.873Z,19.92
2023-04-15T19:43:51.528Z,18.73
2023-04-15T19:46:19.229Z,19.80
2023-04-15T19:48:46.983Z,15.73
2023-04-15T19:51:14.333Z,11.27
2023-04-15T19:53:42.142Z,12.30
2023-04-15T19:56:09.430Z,11.35
2023-04-15T19:58:37.632Z,12.60
2023-04-15T20:01:04.843Z,16.10
2023-04-15T20:03:32.841Z,17.08
2023-04-15T20:06:00.269Z,13.23
2023-04-15T20:08:27.943Z,16.83
2023-04-15T20:10:55.245Z,16.77
2023-04-15T20:13:22.822Z,17.73
2023-04-15T20:15:50.208Z,15.70
2023-04-15T20:18:17.867Z,15.52
2023-04-15T20:20:45.264Z,13.07
2023-04-15T20:23:12.863Z,12.35
2023-04-15T20:25:40.078Z,10.95
2023-04-15T20:28:10.613Z,10.55
2023-04-15T20:30:39.696Z,12.35
2023-04-15T20:33:08.224Z,11.50
2023-04-15T20:35:35.633Z,20.90
2023-04-15T20:38:04.614Z,16.73
2023-04-15T20:40:33.816Z,24.30
2023-04-15T20:43:01.467Z,16.50
2023-04-15T20:45:28.705Z,27.55
2023-04-15T20:47:56.421Z,22.65
2023-04-15T20:50:23.626Z,21.45
2023-04-15T20:52:51.342Z,18.85
2023-04-15T20:55:18.761Z,15.50
2023-04-15T20:57:48.709Z,29.88
2023-04-15T21:00:16.048Z,42.40
2023-04-15T21:02:43.781Z,19.48
2023-04-15T21:05:11.573Z,18.50
2023-04-15T21:07:39.136Z,20.02
2023-04-15T21:10:06.811Z,19.42
2023-04-15T21:12:34.394Z,17.80
2023-04-15T21:15:01.908Z,16.92
2023-04-15T21:17:29.622Z,22.95
2023-04-15T21:19:56.890Z,30.23
2023-04-15T21:22:24.469Z,41.10
2023-04-15T21:24:51.709Z,46.20
2023-04-15T21:27:19.267Z,37.80
2023-04-15T21:29:46.491Z,31.67
2023-04-15T21:32:14.087Z,28.23
2023-04-15T21:34:41.354Z,24.77
2023-04-15T21:37:08.952Z,27.98
2023-04-15T21:39:36.138Z,30.23
2023-04-15T21:42:03.794Z,30.80
2023-04-15T21:44:31.112Z,72.80
2023-04-15T21:46:58.748Z,81.90
2023-04-15T21:49:26.078Z,77.72
2023-04-15T21:51:53.543Z,66.68
2023-04-15T21:54:20.854Z,58.60
2023-04-15T21:56:49.897Z,52.38
2023-04-15T21:59:17.129Z,45.95
2023-04-15T22:01:44.751Z,41.90
2023-04-15T22:04:12.185Z,35.95
2023-04-15T22:06:39.798Z,36.65
2023-04-15T22:09:06.947Z,34.92
2023-04-15T22:11:34.500Z,40.67
2023-04-15T22:14:01.792Z,62.55
2023-04-15T22:16:29.634Z,60.63
2023-04-15T22:18:56.880Z,62.78
2023-04-15T22:21:24.477Z,60.17
2023-04-15T22:24:39.058Z,56.50
2023-04-15T22:26:44.453Z,50.58
2023-04-15T22:29:11.817Z,49.28
2023-04-15T22:31:39.299Z,47.40
2023-04-15T22:34:06.702Z,42.08
2023-04-15T22:36:34.340Z,36.60
2023-04-15T22:39:01.706Z,38.88
2023-04-15T22:41:29.221Z,44.58
2023-04-15T22:43:56.505Z,30.35
2023-04-15T22:46:24.084Z,29.60
2023-04-15T22:48:51.342Z,29.40
2023-04-15T22:51:23.139Z,34.33
2023-04-15T22:53:50.851Z,36.22
2023-04-15T22:56:20.925Z,33.10
2023-04-15T22:58:49.053Z,38.25
2023-04-15T23:01:17.965Z,37.50
2023-04-15T23:03:56.102Z,32.33
2023-04-15T23:06:27.416Z,27.52
2023-04-15T23:08:54.709Z,30.15
2023-04-15T23:11:22.320Z,28.55
2023-04-15T23:13:50.869Z,27.48
2023-04-15T23:16:18.511Z,29.75
2023-04-15T23:18:45.719Z,37.35
2023-04-15T23:21:13.335Z,35.47
2023-04-15T23:23:40.599Z,31.65
2023-04-15T23:26:08.083Z,28.88
2023-04-15T23:28:35.239Z,31.80
2023-04-15T23:31:02.840Z,30.05
2023-04-15T23:33:30.034Z,35.05
2023-04-15T23:35:57.595Z,35.58
2023-04-15T23:38:24.706Z,40.15
2023-04-15T23:40:52.484Z,36.85
2023-04-15T23:43:19.712Z,42.38
2023-04-15T23:45:47.189Z,50.13
2023-04-15T23:48:14.355Z,42.25
2023-04-15T23:50:43.441Z,43.05
2023-04-15T23:53:10.906Z,40.35
2023-04-15T23:55:38.411Z,29.35
2023-04-15T23:58:05.611Z,24.60
